San Diego International Airport
KSAN : now visible

Airfield :











YOU CAN JOIN US ON...

 
LOGIN :

Register | Disclaimer

   EN    FR    IT 

 









Legend :    VFR   Marginal VFR   IFR   Intensive IFR   Very Intensive IFR
Visi :
Ceiling :
>= 8 km
>= 3000ft
5 to 8 km
1000 to 3000 ft
1500m to 5 km
500 to 1000 ft
800 to 1500m
200 to 500 ft
< 800m
< 200 ft
Symbols :   Thunderstorms  Fog  Heavy snow  Heavy precipitations  Wind > 20 kt







- Airport Elevation : 17 ft
- IATA code : SAN


KSAN - San Diego International

CURRENT METAR :
  • 190851Z 00000KT 10SM OVC016 21/16 A2994 RMK AO2 SLP136 T02060161 50000

EXPIRED METARs :
  • 190751Z 00000KT 10SM OVC016 20/16 A2994 RMK AO2 SLP138 T02000161 402330189
  • 190651Z 36003KT 10SM BKN016 20/16 A2993 RMK AO2 SLP136 T02000161

TAF KSAN
Valid from the 19 at 09:00 until the 20 at 12:00 UTC


190846Z 1909/2012 VRB04KT P6SM OVC015
FM191700 VRB04KT P6SM SCT017
FM192000 28010KT P6SM SKC
FM200200 VRB04KT P6SM FEW012
FM200500 VRB04KT P6SM OVC013
No reported NOTAMs for that airfield.



MET'MAP, your aeronautical weather chart ! - Copyright ORBIFLY December 2007 - Disclaimer

ORBIFLY MET'MAP TEAM :

Programming & Development : Alexandra Zaïnal
Concept & Development : Baudouin d'Aumeries
Co-Development & Prog : Marc-Olivier Méhu
Technical & hardware support : Manuel Goepfert

Contact : metmap@orbifly.com




SOURCES & CREDITS :

   NOAA       Earth
Advisory